Saint Charles, Louisiana
Current Conditions -  °F | °C
As of 2:47 PM on Thursday 23 Oct 2014 (Local Time) from KHUM Reporting Station
Clear Clear  
Wind Chill: 79°   Ceiling: Unl
Heat Index: 79°   Visibility: 7mi
Dew Point: 48°   Wind: 7mph
Humidity: 34%   Direction: 50°NE
Pressure: 30.03"   Gusts: NA
Location:  29.7195°N, 90.5441°W
Report Text: KHUM 231947Z 05006KT 7SM SKC 26/09 A3003 RMK ATIS S VA/RY36 DV
Loading
Personal Weather Stations






























Interactive Weather Map
Tropical Storm Tracking
New forecast layout! Learn more

10-Day Weather Forecast

Advertisements
Track Severe Weather on mobile